createdAt,value
2018-02-24T00:00:42.221Z,-2.00
2018-02-24T00:03:09.741Z,-2.10
2018-02-24T00:05:37.318Z,-2.00
2018-02-24T00:08:05.595Z,-2.00
2018-02-24T00:10:33.886Z,-1.90
2018-02-24T00:13:01.395Z,-1.90
2018-02-24T00:15:28.913Z,-2.00
2018-02-24T00:17:56.414Z,-1.90
2018-02-24T00:20:23.935Z,-1.90
2018-02-24T00:22:51.441Z,-2.00
2018-02-24T00:25:18.958Z,-2.00
2018-02-24T00:27:46.484Z,-1.90
2018-02-24T00:30:13.994Z,-2.00
2018-02-24T00:32:41.533Z,-1.90
2018-02-24T00:35:09.045Z,-1.90
2018-02-24T00:37:36.569Z,-2.00
2018-02-24T00:40:04.088Z,-2.10
2018-02-24T00:42:31.608Z,-2.00
2018-02-24T00:44:59.129Z,-2.10
2018-02-24T00:47:26.651Z,-2.20
2018-02-24T00:49:54.185Z,-2.30
2018-02-24T00:52:21.706Z,-2.30
2018-02-24T00:54:49.215Z,-2.30
2018-02-24T00:57:16.737Z,-2.50
2018-02-24T00:59:44.258Z,-2.30
2018-02-24T01:02:11.787Z,-2.30
2018-02-24T01:04:39.295Z,-2.40
2018-02-24T01:07:06.840Z,-2.60
2018-02-24T01:09:34.353Z,-2.40
2018-02-24T01:12:01.879Z,-2.30
2018-02-24T01:14:29.396Z,-2.30
2018-02-24T01:16:57.693Z,-2.30
2018-02-24T01:19:25.211Z,-2.40
2018-02-24T01:21:52.734Z,-2.50
2018-02-24T01:24:20.272Z,-2.40
2018-02-24T01:26:47.786Z,-2.40
2018-02-24T01:29:15.319Z,-2.50
2018-02-24T01:31:42.821Z,-2.50
2018-02-24T01:34:11.110Z,-2.50
2018-02-24T01:36:38.610Z,-2.60
2018-02-24T01:39:06.906Z,-2.50
2018-02-24T01:41:34.409Z,-2.50
2018-02-24T01:44:01.938Z,-2.40
2018-02-24T01:46:30.222Z,-2.40
2018-02-24T01:48:58.524Z,-2.40
2018-02-24T01:51:26.042Z,-2.40
2018-02-24T01:53:53.575Z,-2.50
2018-02-24T01:56:21.093Z,-2.70
2018-02-24T01:58:48.614Z,-2.50
2018-02-24T02:01:16.129Z,-2.60
2018-02-24T02:03:43.664Z,-2.50
2018-02-24T02:06:11.941Z,-2.60
2018-02-24T02:08:40.225Z,-2.60
2018-02-24T02:11:08.506Z,-2.60
2018-02-24T02:13:36.040Z,-2.60
2018-02-24T02:16:04.327Z,-2.50
2018-02-24T02:18:32.605Z,-2.60
2018-02-24T02:21:00.976Z,-2.60
2018-02-24T02:23:28.540Z,-2.60
2018-02-24T02:25:56.826Z,-2.60
2018-02-24T02:28:25.123Z,-2.70
2018-02-24T02:30:52.622Z,-2.70
2018-02-24T02:33:20.170Z,-2.70
2018-02-24T02:35:47.688Z,-2.80
2018-02-24T02:38:15.217Z,-2.70
2018-02-24T02:40:43.503Z,-2.80
2018-02-24T02:43:11.804Z,-2.80
2018-02-24T02:45:39.314Z,-2.80
2018-02-24T02:48:06.852Z,-2.70
2018-02-24T02:50:34.378Z,-2.60
2018-02-24T02:53:01.883Z,-2.70
2018-02-24T02:55:29.405Z,-2.80
2018-02-24T02:57:56.910Z,-2.80
2018-02-24T03:00:24.456Z,-2.60
2018-02-24T03:02:52.005Z,-2.80
2018-02-24T03:05:19.530Z,-2.80
2018-02-24T03:07:47.069Z,-2.70
2018-02-24T03:10:15.369Z,-2.60
2018-02-24T03:12:42.900Z,-2.60
2018-02-24T03:15:11.185Z,-2.70
2018-02-24T03:17:39.455Z,-2.70
2018-02-24T03:20:07.734Z,-2.70
2018-02-24T03:22:36.007Z,-2.60
2018-02-24T03:25:04.303Z,-2.80
2018-02-24T03:27:31.805Z,-2.80
2018-02-24T03:29:59.379Z,-2.80
2018-02-24T03:32:26.938Z,-2.80
2018-02-24T03:34:54.467Z,-2.80
2018-02-24T03:37:21.975Z,-2.90
2018-02-24T03:39:50.261Z,-2.70
2018-02-24T03:42:17.758Z,-2.70
2018-02-24T03:44:45.266Z,-2.80
2018-02-24T03:47:13.550Z,-2.70
2018-02-24T03:49:41.830Z,-2.70
2018-02-24T03:52:09.352Z,-2.70
2018-02-24T03:54:36.890Z,-2.80
2018-02-24T03:57:04.394Z,-2.90
2018-02-24T03:59:32.701Z,-2.90
2018-02-24T04:02:00.212Z,-2.90
2018-02-24T04:04:27.743Z,-2.80
2018-02-24T04:06:55.246Z,-2.80
2018-02-24T04:09:23.536Z,-2.80
2018-02-24T04:11:51.067Z,-2.80
2018-02-24T04:14:18.588Z,-2.80
2018-02-24T04:16:46.872Z,-2.80
2018-02-24T04:19:14.410Z,-2.80
2018-02-24T04:21:41.933Z,-2.80
2018-02-24T04:24:10.223Z,-3.00
2018-02-24T04:26:38.485Z,-3.10
2018-02-24T04:29:06.808Z,-2.90
2018-02-24T04:31:34.329Z,-2.90
2018-02-24T04:34:02.605Z,-3.10
2018-02-24T04:36:30.915Z,-3.10
2018-02-24T04:38:58.448Z,-3.10
2018-02-24T04:41:26.730Z,-3.20
2018-02-24T04:43:54.254Z,-3.20
2018-02-24T04:46:21.763Z,-3.10
2018-02-24T04:48:49.273Z,-3.10
2018-02-24T04:51:16.796Z,-3.00
2018-02-24T04:53:44.332Z,-3.00
2018-02-24T04:56:11.864Z,-3.10
2018-02-24T04:58:40.168Z,-3.10
2018-02-24T05:01:07.680Z,-3.10
2018-02-24T05:03:35.220Z,-3.00
2018-02-24T05:06:02.741Z,-3.00
2018-02-24T05:08:30.266Z,-3.00
2018-02-24T05:10:57.784Z,-3.00
2018-02-24T05:13:25.334Z,-3.00
2018-02-24T05:15:52.838Z,-3.00
2018-02-24T05:18:20.376Z,-3.20
2018-02-24T05:20:47.888Z,-3.10
2018-02-24T05:23:15.408Z,-3.20
2018-02-24T05:25:42.905Z,-3.30
2018-02-24T05:28:10.445Z,-3.20
2018-02-24T05:30:38.714Z,-3.20
2018-02-24T05:33:07.005Z,-3.20
2018-02-24T05:35:34.524Z,-3.20
2018-02-24T05:38:02.045Z,-3.20
2018-02-24T05:40:29.558Z,-3.20
2018-02-24T05:42:57.071Z,-3.20
2018-02-24T05:45:24.605Z,-3.30
2018-02-24T05:47:52.118Z,-3.20
2018-02-24T05:50:19.648Z,-3.10
2018-02-24T05:52:47.154Z,-3.20
2018-02-24T05:55:14.681Z,-3.20
2018-02-24T05:57:42.941Z,-3.30
2018-02-24T06:00:10.464Z,-3.30
2018-02-24T06:02:38.730Z,-3.30
2018-02-24T06:05:07.020Z,-3.20
2018-02-24T06:07:35.338Z,-3.20
2018-02-24T06:10:02.838Z,-3.20
2018-02-24T06:12:31.109Z,-3.20
2018-02-24T06:14:58.633Z,-3.20
2018-02-24T06:17:26.146Z,-3.20
2018-02-24T06:19:56.231Z,-3.30
2018-02-24T06:22:23.765Z,-3.30
2018-02-24T06:24:51.287Z,-3.30
2018-02-24T06:27:18.801Z,-3.40
2018-02-24T06:29:46.323Z,-3.40
2018-02-24T06:32:13.830Z,-3.40
2018-02-24T06:34:41.353Z,-3.40
2018-02-24T06:37:08.849Z,-3.40
2018-02-24T06:39:36.449Z,-3.30
2018-02-24T06:42:03.913Z,-3.30
2018-02-24T06:44:31.522Z,-3.20
2018-02-24T06:46:59.017Z,-3.10
2018-02-24T06:49:26.538Z,-3.20
2018-02-24T06:51:54.068Z,-3.20
2018-02-24T06:54:21.582Z,-3.20
2018-02-24T06:56:49.870Z,-3.30
2018-02-24T06:59:17.395Z,-3.30
2018-02-24T07:01:44.907Z,-3.30
2018-02-24T07:04:12.432Z,-3.30
2018-02-24T07:06:40.720Z,-3.00
2018-02-24T07:09:08.252Z,-3.00
2018-02-24T07:11:35.768Z,-3.10
2018-02-24T07:14:03.290Z,-3.00
2018-02-24T07:16:30.796Z,-2.90
2018-02-24T07:18:58.328Z,-2.90
2018-02-24T07:21:25.851Z,-2.70
2018-02-24T07:23:53.395Z,-2.60
2018-02-24T07:26:20.894Z,-2.60
2018-02-24T07:28:48.428Z,-2.60
2018-02-24T07:31:16.697Z,-2.50
2018-02-24T07:33:45.009Z,-2.50
2018-02-24T07:36:12.519Z,-2.50
2018-02-24T07:38:40.062Z,-2.50
2018-02-24T07:41:07.590Z,-2.50
2018-02-24T07:43:35.114Z,-2.30
2018-02-24T07:46:02.637Z,-2.10
2018-02-24T07:48:30.163Z,-2.00
2018-02-24T07:50:57.686Z,-1.70
2018-02-24T07:53:25.984Z,-1.50
2018-02-24T07:55:53.506Z,-1.50
2018-02-24T07:58:21.018Z,-1.70
2018-02-24T08:00:48.528Z,-1.70
2018-02-24T08:03:16.067Z,-1.50
2018-02-24T08:05:43.584Z,-1.40
2018-02-24T08:08:11.114Z,-1.30
2018-02-24T08:10:39.402Z,-0.90
2018-02-24T08:13:06.925Z,-0.90
2018-02-24T08:15:34.423Z,-0.70
2018-02-24T08:18:01.941Z,-0.70
2018-02-24T08:20:29.549Z,-0.60
2018-02-24T08:22:57.067Z,-0.50
2018-02-24T08:25:24.601Z,-0.10
2018-02-24T08:27:52.136Z,2.20
2018-02-24T08:30:19.659Z,5.00
2018-02-24T08:32:47.917Z,6.50
2018-02-24T08:35:15.500Z,6.50
2018-02-24T08:37:43.936Z,7.70
2018-02-24T08:40:12.213Z,8.60
2018-02-24T08:42:39.741Z,8.60
2018-02-24T08:45:07.278Z,8.60
2018-02-24T08:47:35.556Z,7.50
2018-02-24T08:50:03.845Z,4.80
2018-02-24T08:52:31.354Z,4.70
2018-02-24T08:54:58.927Z,2.90
2018-02-24T08:57:26.437Z,2.30
2018-02-24T08:59:53.958Z,1.80
2018-02-24T09:02:22.240Z,1.30
2018-02-24T09:04:50.531Z,1.30
2018-02-24T09:07:18.025Z,1.30
2018-02-24T09:09:45.553Z,1.10
2018-02-24T09:12:13.073Z,1.20
2018-02-24T09:14:41.373Z,1.20
2018-02-24T09:17:08.874Z,1.20
2018-02-24T09:19:36.391Z,1.30
2018-02-24T09:22:03.878Z,1.60
2018-02-24T09:24:31.526Z,1.80
2018-02-24T09:26:59.040Z,1.70
2018-02-24T09:29:27.346Z,2.30
2018-02-24T09:31:54.851Z,2.30
2018-02-24T09:34:22.381Z,2.30
2018-02-24T09:36:49.893Z,2.50
2018-02-24T09:39:18.184Z,3.50
2018-02-24T09:41:45.688Z,3.50
2018-02-24T09:44:13.207Z,3.90
2018-02-24T09:46:40.711Z,4.20
2018-02-24T09:49:08.237Z,4.10
2018-02-24T09:51:35.751Z,4.00
2018-02-24T09:54:04.057Z,3.80
2018-02-24T09:56:31.564Z,3.80
2018-02-24T09:58:59.072Z,3.90
2018-02-24T10:01:26.620Z,3.90
2018-02-24T10:03:54.157Z,3.90
2018-02-24T10:06:21.651Z,3.80
2018-02-24T10:08:50.221Z,3.90
2018-02-24T10:11:18.251Z,3.60
2018-02-24T10:13:46.300Z,3.80
2018-02-24T10:16:13.809Z,3.60
2018-02-24T10:18:42.104Z,3.60
2018-02-24T10:21:09.613Z,3.60
2018-02-24T10:23:37.141Z,3.70
2018-02-24T10:26:04.643Z,3.40
2018-02-24T10:28:32.145Z,3.20
2018-02-24T10:30:59.654Z,3.50
2018-02-24T10:33:27.203Z,3.70
2018-02-24T10:35:54.678Z,3.40
2018-02-24T10:38:22.273Z,3.50
2018-02-24T10:40:49.757Z,3.60
2018-02-24T10:43:17.282Z,3.70
2018-02-24T10:45:44.790Z,3.70
2018-02-24T10:48:12.302Z,3.60
2018-02-24T10:50:39.819Z,3.90
2018-02-24T10:53:07.319Z,3.70
2018-02-24T10:55:34.851Z,3.90
2018-02-24T10:58:02.594Z,3.80
2018-02-24T11:00:30.132Z,3.50
2018-02-24T11:02:57.661Z,3.60
2018-02-24T11:05:25.161Z,3.70
2018-02-24T11:07:52.670Z,3.70
2018-02-24T11:10:20.210Z,3.90
2018-02-24T11:12:48.500Z,4.30
2018-02-24T11:15:16.015Z,4.30
2018-02-24T11:17:43.523Z,4.10
2018-02-24T11:20:11.038Z,4.00
2018-02-24T11:22:38.534Z,4.40
2018-02-24T11:25:06.824Z,4.90
2018-02-24T11:27:34.338Z,4.90
2018-02-24T11:30:01.851Z,4.90
2018-02-24T11:32:29.610Z,5.10
2018-02-24T11:34:57.141Z,5.30
2018-02-24T11:37:25.414Z,5.60
2018-02-24T11:39:53.689Z,5.80
2018-02-24T11:42:21.959Z,5.90
2018-02-24T11:44:50.257Z,5.70
2018-02-24T11:47:17.866Z,5.60
2018-02-24T11:49:45.414Z,5.60
2018-02-24T11:52:12.928Z,5.50
2018-02-24T11:54:41.210Z,5.50
2018-02-24T11:57:08.719Z,5.50
2018-02-24T11:59:36.234Z,5.60
2018-02-24T12:02:03.750Z,5.10
2018-02-24T12:04:31.279Z,4.60
2018-02-24T12:06:58.788Z,4.70
2018-02-24T12:09:27.058Z,4.20
2018-02-24T12:11:54.549Z,4.20
2018-02-24T12:14:22.089Z,4.00
2018-02-24T12:16:50.352Z,3.90
2018-02-24T12:19:17.898Z,3.90
2018-02-24T12:21:45.385Z,3.90
2018-02-24T12:24:13.671Z,3.50
2018-02-24T12:26:41.166Z,3.50
2018-02-24T12:29:09.455Z,3.50
2018-02-24T12:31:37.033Z,3.50
2018-02-24T12:34:04.562Z,3.40
2018-02-24T12:36:32.076Z,3.40
2018-02-24T12:39:00.364Z,3.40
2018-02-24T12:41:27.862Z,3.30
2018-02-24T12:43:55.381Z,3.30
2018-02-24T12:46:22.891Z,3.30
2018-02-24T12:48:50.532Z,3.30
2018-02-24T12:51:18.022Z,3.20
2018-02-24T12:53:45.548Z,3.30
2018-02-24T12:56:13.056Z,3.50
2018-02-24T12:58:41.344Z,3.30
2018-02-24T13:01:10.657Z,3.30
2018-02-24T13:03:38.181Z,3.30
2018-02-24T13:06:06.455Z,3.40
2018-02-24T13:08:33.975Z,3.30
2018-02-24T13:11:01.467Z,3.20
2018-02-24T13:13:28.974Z,3.10
2018-02-24T13:15:56.475Z,3.50
2018-02-24T13:18:23.992Z,3.80
2018-02-24T13:20:51.481Z,3.80
2018-02-24T13:23:18.985Z,4.00
2018-02-24T13:25:46.479Z,3.30
2018-02-24T13:28:14.015Z,3.20
2018-02-24T13:30:41.533Z,3.30
2018-02-24T13:33:09.803Z,3.20
2018-02-24T13:35:37.332Z,3.20
2018-02-24T13:38:04.837Z,3.30
2018-02-24T13:40:33.124Z,3.00
2018-02-24T13:43:01.493Z,2.80
2018-02-24T13:45:29.788Z,2.70
2018-02-24T13:47:57.296Z,2.70
2018-02-24T13:50:24.803Z,2.50
2018-02-24T13:52:53.062Z,2.30
2018-02-24T13:55:21.360Z,2.50
2018-02-24T13:57:48.882Z,2.50
2018-02-24T14:00:16.405Z,2.80
2018-02-24T14:02:43.917Z,3.20
2018-02-24T14:05:12.205Z,3.60
2018-02-24T14:07:39.693Z,3.60
2018-02-24T14:10:07.206Z,3.90
2018-02-24T14:12:35.480Z,3.60
2018-02-24T14:15:03.755Z,3.20
2018-02-24T14:17:32.005Z,3.20
2018-02-24T14:19:59.529Z,3.20
2018-02-24T14:22:27.089Z,3.10
2018-02-24T14:24:54.599Z,3.10
2018-02-24T14:27:22.086Z,2.90
2018-02-24T14:29:49.624Z,3.00
2018-02-24T14:32:17.152Z,2.90
2018-02-24T14:34:44.716Z,2.90
2018-02-24T14:37:12.228Z,3.00
2018-02-24T14:39:39.738Z,2.90
2018-02-24T14:42:07.234Z,3.00
2018-02-24T14:44:34.746Z,3.20
2018-02-24T14:47:02.265Z,3.30
2018-02-24T14:49:30.538Z,3.20
2018-02-24T14:51:58.053Z,3.10
2018-02-24T14:54:25.561Z,3.20
2018-02-24T14:56:53.065Z,3.10
2018-02-24T14:59:20.593Z,3.10
2018-02-24T15:01:48.136Z,2.90
2018-02-24T15:04:15.638Z,2.80
2018-02-24T15:06:43.129Z,2.90
2018-02-24T15:09:10.700Z,2.90
2018-02-24T15:11:38.216Z,2.90
2018-02-24T15:14:05.727Z,2.90
2018-02-24T15:16:33.218Z,2.90
2018-02-24T15:19:00.726Z,2.80
2018-02-24T15:21:28.240Z,2.70
2018-02-24T15:23:55.862Z,2.70
2018-02-24T15:26:23.354Z,2.70
2018-02-24T15:28:50.881Z,2.70
2018-02-24T15:31:18.361Z,2.70
2018-02-24T15:33:45.876Z,2.80
2018-02-24T15:36:13.387Z,2.80
2018-02-24T15:38:40.894Z,2.80
2018-02-24T15:41:08.391Z,2.60
2018-02-24T15:43:35.941Z,2.80
2018-02-24T15:46:03.534Z,2.70
2018-02-24T15:48:31.052Z,2.60
2018-02-24T15:50:59.412Z,2.60
2018-02-24T15:53:26.917Z,2.60
2018-02-24T15:55:54.406Z,2.60
2018-02-24T15:58:22.678Z,2.50
2018-02-24T16:00:50.930Z,2.40
2018-02-24T16:03:18.441Z,2.40
2018-02-24T16:05:45.961Z,2.40
2018-02-24T16:08:13.455Z,2.40
2018-02-24T16:10:40.978Z,2.40
2018-02-24T16:13:15.031Z,2.40
2018-02-24T16:15:42.538Z,2.40
2018-02-24T16:18:10.060Z,2.20
2018-02-24T16:20:38.352Z,2.20
